Meteo Giornale » Osservazioni meteo Stati Uniti (USA) » George-Victorvi

ore: 10:15 - Osservazioni Meteo George-Victorvi
Lat. 34° 35' N Lon. 117° 23' W Alt. 876 metri s.l.m.

sereno

27 °C

Sereno

Temp. 24 Ore

14 °C

34 °C

Nord

0 Km/h

Dew point 0 °C

Umidità 17 %

Visibilità  10 Km

Il sole sorge alle ore 06:22

Il sole tramonta alle ore 19:15

Data e Ora Cielo e Fenomeni T °C DP °C Um. % Pres. hPa Vis. km Vento km/h
Oggi h: 10:15 sereno Sereno 27 0 17 1018 10 N 0
Oggi h: 09:55 sereno Sereno 26 1 19 1018 10 S 7.4
Oggi h: 09:35 sereno Sereno 25 2 22 1018 10 N 0
Oggi h: 09:15 sereno Sereno 25 1 20 1018 10 N 7.4
Oggi h: 08:55 sereno Sereno 23 -1 20 1017 10 SO 7.4
Oggi h: 08:35 sereno Sereno 22 1 24 1017 10 SO 9.3
Oggi h: 08:15 sereno Sereno 21 3 30 1018 10 SO 11.1
Oggi h: 07:55 sereno Sereno 20 5 37 1017 10 N 0
Oggi h: 07:35 sereno Sereno 18 6 45 1017 10 N 0
Oggi h: 07:15 sereno Sereno 16 6 51 1017 10 N 5.5
Oggi h: 06:55 sereno Sereno 15 5 51 1017 10 O/SO 7.4
Oggi h: 06:35 sereno Sereno 14 5 54 1017 10 O 13
Oggi h: 06:15 sereno Sereno 17 4 41 1016 10 N 7.4
Oggi h: 05:55 sereno Sereno 18 4 39 1016 10 S/SO 13
Oggi h: 05:35 sereno Sereno 19 4 37 1016 10 S 20.3
Oggi h: 05:15 sereno Sereno 18 4 39 1016 10 S 18.5
Oggi h: 04:55 sereno Sereno 18 4 39 1016 10 S 20.3
Oggi h: 04:30 sereno Sereno 18 5 42 1016 10 S 7.4
Oggi h: 04:15 sereno Sereno 18 5 42 1016 10 S 14.8
Oggi h: 03:55 sereno Sereno 18 7 48 1016 10 S/SO 13
Oggi h: 03:30 sereno Sereno 17 7 51 1016 10 SO 14.8
Oggi h: 03:15 sereno Sereno 18 7 48 1016 10 O/SO 11.1
Oggi h: 02:55 sereno Sereno 19 7 45 1016 10 SO 16.7
Oggi h: 02:35 sereno Sereno 19 6 42 1016 14 S/SO 16.7
Oggi h: 02:15 sereno Sereno 19 4 37 1016 10 S/SO 13
Oggi h: 01:55 sereno Sereno 20 4 34 1016 10 S 18.5
Oggi h: 01:30 sereno Sereno 19 4 37 1017 10 S/SO 16.7
Oggi h: 01:15 sereno Sereno 19 4 37 1017 10 SO 14.8
Oggi h: 00:55 sereno Sereno 18 4 39 1016 10 SO 16.7
Oggi h: 00:30 sereno Sereno 19 4 37 1017 14 SO 7.4
Oggi h: 00:15 sereno Sereno 20 5 37 1017 10 O/SO 13
Ieri h: 23:55 sereno Sereno 20 5 37 1017 10 SO 14.8
Ieri h: 23:35 sereno Sereno 20 0 26 1017 11 O 7.4
Ieri h: 23:10 sereno Sereno 21 -1 22 1016 10 S 13
Ieri h: 22:55 sereno Sereno 21 0 24 1016 10 S 16.7
Ieri h: 22:35 sereno Sereno 21 2 28 1016 10 S/SE 13
Ieri h: 22:10 sereno Sereno 22 4 30 1016 10 S/SE 20.3
Ieri h: 21:55 sereno Sereno 22 5 32 1016 10 S 18.5
Ieri h: 21:35 sereno Sereno 22 8 40 1016 10 SE 18.5
Ieri h: 21:15 sereno Sereno 23 9 40 1016 10 SE 22.2
Ieri h: 20:55 sereno Sereno 23 8 38 1016 10 S/SE 24
Ieri h: 20:35 sereno Sereno 24 8 35 1016 10 S 18.5
Ieri h: 20:10 sereno Sereno 24 7 33 1015 10 S 22.2
Ieri h: 19:55 sereno Sereno 25 6 29 1015 10 S/SE 27.8
Ieri h: 19:35 sereno Sereno 26 -3 14 1014 10 S 24
Ieri h: 19:10 sereno Sereno 28 -5 11 1014 10 S 24
Ieri h: 18:55 sereno Sereno 28 -6 10 1014 10 S 27.8
Ieri h: 18:35 sereno Sereno 29 -7 9 1014 10 S 35.2
Ieri h: 18:10 sereno Sereno 30 -7 8 1014 10 S 40.7
Ieri h: 17:55 sereno Sereno 31 -4 10 1014 10 S 38.8
Ieri h: 17:35 sereno Sereno 31 -3 10 1014 10 S 46.3
Ieri h: 17:15 sereno Sereno 32 -4 9 1014 10 S 37
Ieri h: 16:50 sereno Sereno 32 -3 10 1014 10 S 42.6
Ieri h: 16:35 sereno Sereno 32 -1 11 1014 10 S 37
Ieri h: 16:15 sereno Sereno 32 -1 11 1014 10 S 38.8
Ieri h: 15:50 sereno Sereno 33 1 13 1014 10 S/SE 44.4
Ieri h: 15:35 sereno Sereno 33 1 13 1014 10 S/SE 37
Ieri h: 15:15 sereno Sereno 33 2 14 1014 10 S/SE 38.8
Ieri h: 14:50 sereno Sereno 33 3 15 1014 10 S 37
Ieri h: 14:30 sereno Sereno 33 4 16 1015 10 S/SE 42.6
Ieri h: 14:15 sereno Sereno 33 3 15 1015 10 S/SE 37
Ieri h: 13:50 sereno Sereno 33 2 14 1015 10 S/SE 42.6
Ieri h: 13:35 sereno Sereno 33 2 14 1015 10 S/SE 31.5
Ieri h: 13:15 sereno Sereno 34 3 14 1015 10 S 24
Ieri h: 12:50 sereno Sereno 33 2 14 1015 10 S/SE 22.2
Ieri h: 12:35 sereno Sereno 32 2 14 1015 10 S/SE 27.8
Ieri h: 12:15 sereno Sereno 32 4 17 1016 10 S 13
Ieri h: 11:50 sereno Sereno 32 5 18 1016 10 SE 16.7
Ieri h: 11:35 sereno Sereno 32 5 18 1016 10 S 18.5
Ieri h: 11:15 sereno Sereno 31 4 18 1016 10 S/SE 11.1
Ieri h: 10:50 sereno Sereno 31 4 18 1016 10 S 18.5
Ieri h: 10:35 sereno Sereno 31 3 16 1016 10 S 20.3